Time;durP1;ratioP1;P1;durP2;ratioP2;P2;SDS_P1;SDS_P2;PMS_P1;PMS_P2;Temp;Humidity;BMP_temperature;BMP_pressure;BME280_temperature;BME280_humidity;BME280_pressure;Samples;Min_cycle;Max_cycle;Signal;HPM_P1;HPM_P2
2021/04/24 00:01:13;;;;;;;2.35;1.75;;;16.70;50.70;;;;;;4992517;28;20028;-59
2021/04/24 00:03:39;;;;;;;2.75;2.05;;;16.50;50.60;;;;;;4992295;28;20517;-58
2021/04/24 00:06:05;;;;;;;1.95;1.77;;;16.70;50.80;;;;;;4992580;28;20027;-58
2021/04/24 00:08:30;;;;;;;3.17;1.80;;;16.70;50.80;;;;;;4992594;28;20105;-59
2021/04/24 00:10:56;;;;;;;2.50;1.73;;;16.70;50.80;;;;;;4992644;28;20033;-59
2021/04/24 00:13:21;;;;;;;2.72;1.90;;;16.50;50.70;;;;;;4992444;28;20026;-59
2021/04/24 00:15:48;;;;;;;2.28;1.60;;;16.50;50.70;;;;;;4992764;28;20038;-59
2021/04/24 00:18:14;;;;;;;2.83;1.70;;;16.70;50.80;;;;;;4992483;28;20106;-59
2021/04/24 00:20:41;;;;;;;1.63;1.50;;;16.50;50.70;;;;;;4992679;28;20381;-59
2021/04/24 00:23:07;;;;;;;2.22;1.67;;;16.40;50.70;;;;;;4993574;28;20521;-59
2021/04/24 00:25:33;;;;;;;3.55;1.75;;;16.50;50.70;;;;;;4996510;28;20027;-59
2021/04/24 00:27:59;;;;;;;2.15;1.90;;;16.60;50.80;;;;;;4996452;28;20505;-59
2021/04/24 00:30:25;;;;;;;2.45;2.05;;;16.40;50.70;;;;;;4996522;28;20026;-59
2021/04/24 00:32:51;;;;;;;3.17;2.00;;;16.60;50.80;;;;;;4996353;28;20027;-59
2021/04/24 00:35:18;;;;;;;2.28;1.60;;;16.30;50.70;;;;;;4996571;28;20018;-59
2021/04/24 00:37:45;;;;;;;1.80;1.40;;;16.60;50.90;;;;;;4996195;28;20042;-59
2021/04/24 00:40:12;;;;;;;3.30;1.75;;;16.50;50.80;;;;;;4996226;28;20030;-59
2021/04/24 00:42:38;;;;;;;1.70;1.45;;;16.60;50.80;;;;;;4996059;28;20034;-59
2021/04/24 00:45:07;;;;;;;3.28;1.80;;;16.40;50.80;;;;;;4996356;28;20500;-59
2021/04/24 00:47:32;;;;;;;3.47;1.67;;;16.60;51.00;;;;;;4995885;28;20022;-59
2021/04/24 00:49:58;;;;;;;2.80;1.48;;;16.50;51.50;;;;;;4995951;28;20034;-59
2021/04/24 00:52:24;;;;;;;2.50;2.10;;;16.50;50.90;;;;;;4995549;28;20065;-59
2021/04/24 00:54:49;;;;;;;2.55;1.80;;;16.60;50.90;;;;;;4995860;28;20113;-59
2021/04/24 00:57:16;;;;;;;2.05;1.85;;;16.70;51.00;;;;;;4995890;28;20107;-59
2021/04/24 00:59:42;;;;;;;3.72;1.70;;;16.50;50.90;;;;;;4995904;28;20034;-59
2021/04/24 01:02:08;;;;;;;1.90;1.60;;;16.30;50.80;;;;;;4995103;28;20046;-59
2021/04/24 01:04:34;;;;;;;3.30;1.85;;;17.00;51.20;;;;;;4995692;28;20027;-59
2021/04/24 01:07:01;;;;;;;1.85;1.63;;;16.30;50.80;;;;;;4995727;28;20085;-59
2021/04/24 01:09:27;;;;;;;3.17;1.75;;;16.50;50.90;;;;;;4995556;28;20053;-59
2021/04/24 01:11:53;;;;;;;1.40;1.30;;;16.40;50.90;;;;;;4995446;28;20022;-59
2021/04/24 01:14:18;;;;;;;2.17;1.92;;;16.50;51.10;;;;;;4995524;28;20030;-59
2021/04/24 01:16:44;;;;;;;1.83;1.70;;;16.40;50.90;;;;;;4978065;28;20023;-59
2021/04/24 01:19:12;;;;;;;2.45;1.52;;;16.40;50.90;;;;;;4995720;28;20022;-59
2021/04/24 01:21:40;;;;;;;1.77;1.63;;;16.90;51.20;;;;;;4995105;28;20080;-59
2021/04/24 01:24:06;;;;;;;2.97;1.50;;;16.20;50.90;;;;;;4995220;28;20141;-59
2021/04/24 01:26:34;;;;;;;2.78;1.90;;;16.50;75.80;;;;;;4995291;28;20057;-58
2021/04/24 01:29:00;;;;;;;3.45;1.90;;;16.20;50.80;;;;;;4995347;28;20022;-59
2021/04/24 01:31:25;;;;;;;2.75;2.20;;;16.20;50.90;;;;;;4994698;28;20053;-59
2021/04/24 01:33:51;;;;;;;2.42;1.67;;;16.50;51.00;;;;;;4994435;28;20022;-59
2021/04/24 01:36:16;;;;;;;1.67;1.58;;;16.30;50.90;;;;;;4994813;28;20026;-59
2021/04/24 01:38:42;;;;;;;3.65;1.92;;;16.30;50.90;;;;;;4995124;28;20102;-58
2021/04/24 01:41:08;;;;;;;2.67;1.80;;;16.40;51.00;;;;;;4994811;28;20026;-58
2021/04/24 01:43:35;;;;;;;3.13;1.77;;;17.00;51.30;;;;;;4994939;28;20493;-59
2021/04/24 01:46:01;;;;;;;3.78;1.90;;;16.40;51.00;;;;;;4995235;28;20026;-59
2021/04/24 01:48:27;;;;;;;2.20;2.00;;;16.30;50.90;;;;;;4994985;28;20023;-59
2021/04/24 01:50:52;;;;;;;3.55;2.03;;;16.30;51.00;;;;;;4994654;28;20026;-58
2021/04/24 01:53:20;;;;;;;1.73;1.63;;;16.30;51.00;;;;;;4994898;28;20034;-59
2021/04/24 01:55:47;;;;;;;2.00;1.77;;;16.30;51.00;;;;;;4994659;28;20022;-59
2021/04/24 01:58:19;;;;;;;2.22;1.98;;;16.10;50.90;;;;;;4994770;28;20049;-59
2021/04/24 02:00:54;;;;;;;2.58;1.45;;;16.20;50.90;;;;;;4995060;28;20023;-59
2021/04/24 02:03:20;;;;;;;2.90;1.90;;;16.30;51.00;;;;;;4994467;28;20501;-59
2021/04/24 02:05:47;;;;;;;2.25;1.70;;;16.20;51.00;;;;;;4994055;28;20028;-58
2021/04/24 02:08:32;;;;;;;3.78;1.95;;;16.30;51.00;;;;;;4994651;28;20026;-59
2021/04/24 02:10:58;;;;;;;3.25;2.08;;;16.10;50.40;;;;;;4994533;28;20038;-57
2021/04/24 02:13:31;;;;;;;2.50;2.08;;;16.80;51.30;;;;;;4976999;28;20034;-59
2021/04/24 02:15:57;;;;;;;2.90;1.67;;;16.20;50.90;;;;;;4977402;28;20026;-59
2021/04/24 02:18:23;;;;;;;2.10;1.90;;;16.00;50.90;;;;;;4994416;28;20029;-59
2021/04/24 02:20:49;;;;;;;2.97;1.55;;;16.00;50.90;;;;;;4994424;28;20026;-59
2021/04/24 02:23:15;;;;;;;3.08;2.03;;;16.20;51.00;;;;;;4994402;28;20030;-59
2021/04/24 02:25:42;;;;;;;2.22;2.00;;;16.00;50.90;;;;;;4993855;28;20050;-59
2021/04/24 02:28:08;;;;;;;2.95;2.08;;;16.50;51.20;;;;;;4994274;28;20061;-59
2021/04/24 02:30:35;;;;;;;2.00;1.90;;;16.20;51.00;;;;;;4994141;28;20049;-59
2021/04/24 02:33:02;;;;;;;2.35;1.75;;;16.00;50.90;;;;;;4994180;28;20029;-59
2021/04/24 02:36:00;;;;;;;3.67;2.10;;;15.90;50.90;;;;;;4993762;28;20026;-59
2021/04/24 02:38:30;;;;;;;3.47;1.55;;;16.20;51.00;;;;;;4994014;28;20029;-59
2021/04/24 02:40:58;;;;;;;3.75;1.80;;;16.10;51.00;;;;;;4994006;28;20019;-59
2021/04/24 02:43:24;;;;;;;3.22;2.10;;;16.20;51.00;;;;;;4993817;28;20042;-59
2021/04/24 02:45:50;;;;;;;2.30;1.85;;;16.20;51.10;;;;;;4993286;28;20023;-59
2021/04/24 02:48:17;;;;;;;2.97;1.77;;;16.70;51.40;;;;;;4993866;28;20036;-59
2021/04/24 02:50:43;;;;;;;2.10;1.90;;;15.90;51.00;;;;;;4993950;28;20110;-59
2021/04/24 02:53:09;;;;;;;2.25;1.70;;;16.10;51.10;;;;;;4993681;28;20027;-59
2021/04/24 02:55:35;;;;;;;2.55;1.58;;;15.90;50.90;;;;;;4993523;28;20034;-58
2021/04/24 02:58:00;;;;;;;2.47;1.83;;;16.10;51.10;;;;;;4993611;28;20030;-59
2021/04/24 03:00:26;;;;;;;2.47;2.00;;;16.10;51.10;;;;;;4976056;28;20026;-59
2021/04/24 03:03:21;;;;;;;3.15;1.83;;;15.80;50.90;;;;;;4993330;28;20046;-58
2021/04/24 03:05:47;;;;;;;2.63;2.03;;;16.10;51.10;;;;;;4972480;28;20417;-58
2021/04/24 03:08:13;;;;;;;2.80;2.22;;;16.10;51.10;;;;;;4993597;28;20022;-58
2021/04/24 03:10:40;;;;;;;2.35;1.83;;;15.90;51.00;;;;;;4993588;28;20038;-58
2021/04/24 03:13:09;;;;;;;2.97;1.90;;;16.00;51.00;;;;;;4993389;28;20109;-58
2021/04/24 03:15:34;;;;;;;3.13;2.30;;;16.00;51.10;;;;;;4993220;28;20049;-59
2021/04/24 03:18:00;;;;;;;2.15;1.90;;;16.10;51.10;;;;;;4993265;28;20489;-58
2021/04/24 03:20:26;;;;;;;2.20;2.10;;;16.00;51.10;;;;;;4993539;28;20073;-58
2021/04/24 03:22:52;;;;;;;3.88;2.30;;;16.00;51.00;;;;;;4993444;28;20473;-58
2021/04/24 03:25:18;;;;;;;4.43;2.17;;;16.00;51.10;;;;;;4992908;28;20445;-58
2021/04/24 03:27:43;;;;;;;2.47;2.00;;;16.00;51.10;;;;;;4993322;28;20105;-58
2021/04/24 03:30:11;;;;;;;2.38;2.17;;;16.00;51.10;;;;;;4993081;28;20114;-59
2021/04/24 03:32:37;;;;;;;2.55;2.13;;;16.00;51.10;;;;;;4992964;28;20095;-59
2021/04/24 03:35:03;;;;;;;3.10;2.10;;;15.80;51.00;;;;;;4975128;28;20069;-59
2021/04/24 03:37:29;;;;;;;2.50;2.30;;;16.00;51.30;;;;;;4993161;28;20113;-59
2021/04/24 03:39:54;;;;;;;3.40;1.77;;;15.90;51.20;;;;;;4975359;28;20516;-58
2021/04/24 03:42:20;;;;;;;3.30;1.92;;;16.00;51.40;;;;;;4992770;28;20034;-58
2021/04/24 03:44:46;;;;;;;4.57;2.08;;;15.80;51.50;;;;;;4992392;28;20026;-58
2021/04/24 03:47:11;;;;;;;2.17;1.98;;;16.00;51.90;;;;;;4992894;28;20026;-58
2021/04/24 03:49:37;;;;;;;3.03;2.53;;;16.10;51.80;;;;;;4993014;28;20069;-58
2021/04/24 03:52:04;;;;;;;2.60;2.35;;;15.90;51.70;;;;;;4993059;28;20026;-59
2021/04/24 03:54:30;;;;;;;2.42;2.22;;;16.00;51.80;;;;;;4992856;28;20113;-58
2021/04/24 03:56:57;;;;;;;2.85;2.15;;;15.70;51.60;;;;;;4992312;28;20470;-58
2021/04/24 03:59:22;;;;;;;2.42;2.22;;;15.90;51.80;;;;;;4992551;28;20050;-59
2021/04/24 04:01:48;;;;;;;3.08;2.20;;;15.90;51.90;;;;;;4992570;28;20073;-58
2021/04/24 04:04:14;;;;;;;4.82;2.30;;;15.70;51.70;;;;;;4992226;28;20034;-59
2021/04/24 04:06:39;;;;;;;3.58;2.38;;;15.90;51.90;;;;;;4992619;28;20026;-58
2021/04/24 04:09:05;;;;;;;2.40;2.20;;;16.00;51.90;;;;;;4992689;28;20030;-58
2021/04/24 04:11:31;;;;;;;3.60;2.10;;;15.90;51.80;;;;;;4992468;28;20022;-58
2021/04/24 04:13:56;;;;;;;4.65;2.10;;;15.90;51.90;;;;;;4992293;28;20311;-58
2021/04/24 04:16:23;;;;;;;4.15;2.13;;;15.70;51.70;;;;;;4975013;28;20063;-58
2021/04/24 04:18:48;;;;;;;4.38;2.60;;;15.90;51.90;;;;;;4992803;28;20354;-59
2021/04/24 04:21:14;;;;;;;2.28;2.08;;;16.40;52.10;;;;;;4992516;28;20026;-59
2021/04/24 04:23:40;;;;;;;3.05;2.55;;;15.80;51.80;;;;;;4992003;28;20089;-59
2021/04/24 04:26:05;;;;;;;3.80;2.67;;;15.60;51.70;;;;;;4974818;28;20027;-57
2021/04/24 04:28:31;;;;;;;3.13;2.28;;;15.80;51.80;;;;;;4992481;28;20037;-57
2021/04/24 04:30:57;;;;;;;2.25;2.05;;;15.80;51.80;;;;;;4992485;28;20030;-59
2021/04/24 04:33:23;;;;;;;2.80;2.60;;;15.80;51.80;;;;;;4991865;28;20486;-58
2021/04/24 04:35:50;;;;;;;2.40;2.13;;;15.60;51.70;;;;;;4992389;28;20033;-58
2021/04/24 04:38:16;;;;;;;2.17;1.90;;;15.60;51.70;;;;;;4992426;28;20026;-57
2021/04/24 04:40:43;;;;;;;5.05;2.30;;;15.90;51.90;;;;;;4974853;28;20097;-59
2021/04/24 04:43:09;;;;;;;3.75;2.33;;;15.90;51.90;;;;;;4991849;28;20057;-57
2021/04/24 04:45:36;;;;;;;2.47;2.28;;;15.60;51.70;;;;;;4992446;28;20473;-58
2021/04/24 04:48:02;;;;;;;2.72;2.45;;;15.60;77.40;;;;;;4974845;28;20043;-58
2021/04/24 04:50:35;;;;;;;3.92;2.53;;;15.70;51.70;;;;;;4992583;28;20023;-58
2021/04/24 04:53:00;;;;;;;2.50;2.30;;;15.60;51.70;;;;;;4991791;28;20018;-58
2021/04/24 04:55:27;;;;;;;3.15;2.35;;;15.70;51.80;;;;;;4992621;28;20073;-57
2021/04/24 04:57:53;;;;;;;2.50;2.10;;;15.60;51.70;;;;;;4992315;28;20022;-58
2021/04/24 05:00:20;;;;;;;4.60;2.75;;;15.70;51.80;;;;;;4992340;28;20026;-58
2021/04/24 05:02:47;;;;;;;4.05;2.63;;;15.70;51.70;;;;;;4991622;28;20058;-57
2021/04/24 05:05:14;;;;;;;4.22;2.58;;;15.60;51.80;;;;;;4992177;28;20085;-58
2021/04/24 05:07:45;;;;;;;4.03;2.88;;;15.70;51.70;;;;;;4974636;28;20030;-58
2021/04/24 05:10:11;;;;;;;2.92;2.50;;;15.70;51.60;;;;;;4977913;28;20489;-57
2021/04/24 05:12:37;;;;;;;4.65;2.65;;;15.70;51.70;;;;;;4995939;28;20030;-58
2021/04/24 05:15:04;;;;;;;3.13;2.08;;;15.60;51.80;;;;;;4995652;28;20462;-58
2021/04/24 05:17:30;;;;;;;2.42;2.22;;;15.70;51.70;;;;;;4995544;28;20037;-59
2021/04/24 05:19:55;;;;;;;2.95;2.67;;;15.60;51.70;;;;;;4995936;28;20023;-58
2021/04/24 05:22:21;;;;;;;3.97;2.72;;;15.50;51.70;;;;;;4995453;28;20050;-58
2021/04/24 05:24:47;;;;;;;3.42;2.55;;;15.80;51.80;;;;;;4995344;28;20089;-58
2021/04/24 05:27:13;;;;;;;3.13;2.33;;;15.70;51.80;;;;;;4995236;28;20517;-58
2021/04/24 05:29:38;;;;;;;2.92;2.63;;;15.60;51.70;;;;;;4995749;28;20068;-57
2021/04/24 05:32:04;;;;;;;3.28;2.40;;;15.60;51.70;;;;;;4995333;28;20026;-58
2021/04/24 05:34:31;;;;;;;2.53;2.33;;;15.70;51.80;;;;;;4995097;28;20658;-58
2021/04/24 05:36:57;;;;;;;2.75;2.22;;;15.40;51.70;;;;;;4977753;28;20022;-58
2021/04/24 05:39:22;;;;;;;2.60;2.40;;;15.40;51.60;;;;;;4995404;28;20432;-58
2021/04/24 05:41:48;;;;;;;3.08;2.47;;;15.70;51.80;;;;;;4977794;28;20027;-58
2021/04/24 05:44:13;;;;;;;5.78;2.67;;;15.60;51.70;;;;;;4977607;28;20037;-57
2021/04/24 05:46:39;;;;;;;3.85;2.80;;;15.60;51.80;;;;;;4995052;28;20030;-59
2021/04/24 05:49:05;;;;;;;3.92;2.80;;;15.60;52.10;;;;;;4995087;28;20525;-60
2021/04/24 05:51:30;;;;;;;3.05;2.40;;;15.50;51.70;;;;;;4995071;28;20044;-59
2021/04/24 05:53:56;;;;;;;2.65;2.45;;;15.50;51.70;;;;;;4994837;28;20026;-61
2021/04/24 05:56:22;;;;;;;3.25;2.40;;;15.40;51.70;;;;;;4994710;28;20478;-58
2021/04/24 05:58:50;;;;;;;2.53;2.33;;;15.60;51.70;;;;;;4994951;28;20029;-58
2021/04/24 06:01:16;;;;;;;3.85;2.72;;;16.20;52.00;;;;;;4994772;28;20029;-58
2021/04/24 06:03:42;;;;;;;2.75;2.55;;;15.50;51.70;;;;;;4976720;28;20086;-58
2021/04/24 06:06:08;;;;;;;3.22;2.30;;;15.60;51.70;;;;;;4994433;28;20088;-59
2021/04/24 06:08:33;;;;;;;3.72;2.85;;;15.60;51.70;;;;;;4994652;28;20038;-58
2021/04/24 06:10:59;;;;;;;2.40;2.20;;;15.60;51.80;;;;;;4994605;28;20026;-57
2021/04/24 06:13:26;;;;;;;2.60;2.40;;;15.60;51.80;;;;;;4994644;28;20035;-57
2021/04/24 06:15:53;;;;;;;2.45;2.25;;;15.70;52.50;;;;;;4976667;28;20060;-58
2021/04/24 06:18:18;;;;;;;3.03;2.30;;;15.60;51.80;;;;;;4977039;28;20081;-59
2021/04/24 06:20:44;;;;;;;2.67;2.47;;;15.70;52.00;;;;;;4993860;28;20018;-58
2021/04/24 06:23:11;;;;;;;3.47;2.30;;;15.70;51.90;;;;;;4994158;28;20078;-57
2021/04/24 06:25:37;;;;;;;4.55;2.88;;;15.60;52.00;;;;;;4976414;28;20022;-59
2021/04/24 06:28:03;;;;;;;3.03;2.72;;;15.50;51.90;;;;;;4994300;28;20492;-58
2021/04/24 06:30:28;;;;;;;4.47;2.58;;;15.70;51.80;;;;;;4994239;28;20487;-57
2021/04/24 06:32:55;;;;;;;3.35;2.40;;;15.70;51.90;;;;;;4994213;28;20549;-58
2021/04/24 06:35:22;;;;;;;3.40;2.47;;;15.70;52.00;;;;;;4993750;28;20088;-58
2021/04/24 06:37:48;;;;;;;2.65;2.35;;;15.80;52.10;;;;;;4994398;28;20204;-58
2021/04/24 06:40:17;;;;;;;3.03;2.22;;;15.70;52.20;;;;;;4994307;28;20030;-58
2021/04/24 06:42:43;;;;;;;2.72;2.35;;;15.70;52.10;;;;;;4993931;28;20121;-58
2021/04/24 06:45:10;;;;;;;2.30;2.10;;;15.50;52.10;;;;;;4993290;28;20027;-58
2021/04/24 06:47:36;;;;;;;3.95;2.30;;;15.70;52.20;;;;;;4993671;28;20473;-59
2021/04/24 06:50:03;;;;;;;2.65;2.45;;;15.80;52.20;;;;;;4993931;28;20049;-58
2021/04/24 06:52:29;;;;;;;2.42;2.00;;;15.80;52.20;;;;;;4994116;28;20030;-59
2021/04/24 06:54:55;;;;;;;2.40;2.20;;;15.80;52.40;;;;;;4993347;28;20045;-59
2021/04/24 06:57:20;;;;;;;2.83;2.55;;;15.70;52.40;;;;;;4993722;28;20026;-58
2021/04/24 06:59:46;;;;;;;3.92;2.40;;;15.70;52.40;;;;;;4993816;28;20029;-58
2021/04/24 07:02:12;;;;;;;4.28;2.25;;;15.70;52.40;;;;;;4993370;28;20054;-57
2021/04/24 07:04:38;;;;;;;3.47;2.45;;;15.80;52.50;;;;;;4993316;28;20084;-57
2021/04/24 07:07:05;;;;;;;4.28;2.70;;;15.70;52.40;;;;;;4993616;28;20027;-59
2021/04/24 07:09:31;;;;;;;3.60;2.80;;;15.70;52.40;;;;;;4993600;28;20080;-59
2021/04/24 07:11:56;;;;;;;3.63;2.33;;;15.80;52.40;;;;;;4993503;28;20022;-58
2021/04/24 07:14:22;;;;;;;2.28;2.08;;;15.70;52.30;;;;;;4993131;28;20061;-59
2021/04/24 07:16:47;;;;;;;3.38;2.45;;;15.70;52.30;;;;;;4975966;28;20401;-58
2021/04/24 07:19:13;;;;;;;3.10;2.40;;;15.80;52.30;;;;;;4993691;28;20026;-59
2021/04/24 07:21:39;;;;;;;2.58;2.38;;;15.70;52.20;;;;;;4993621;28;20014;-57
2021/04/24 07:24:05;;;;;;;3.42;2.60;;;15.70;52.10;;;;;;4992874;28;20078;-59
2021/04/24 07:26:31;;;;;;;2.50;2.22;;;15.90;52.20;;;;;;4993158;28;20026;-59
2021/04/24 07:28:57;;;;;;;2.60;2.40;;;15.80;52.20;;;;;;4993324;28;20161;-62
2021/04/24 07:31:22;;;;;;;2.95;2.65;;;15.70;52.00;;;;;;4993280;28;20015;-59
2021/04/24 07:33:48;;;;;;;2.40;2.20;;;15.90;52.10;;;;;;4992066;28;20041;-59
2021/04/24 07:36:13;;;;;;;2.70;2.50;;;16.00;52.00;;;;;;4993330;28;20015;-57
2021/04/24 07:38:39;;;;;;;3.78;2.40;;;16.00;52.10;;;;;;4993012;28;20028;-59
2021/04/24 07:41:05;;;;;;;2.60;2.28;;;16.00;52.30;;;;;;4992957;28;20540;-60
2021/04/24 07:43:31;;;;;;;4.47;2.03;;;16.00;52.50;;;;;;4992349;28;20082;-58
2021/04/24 07:45:56;;;;;;;3.20;2.80;;;16.10;52.30;;;;;;4993235;28;20028;-60
2021/04/24 07:48:22;;;;;;;3.35;2.50;;;15.90;52.20;;;;;;4992737;28;20026;-58
2021/04/24 07:50:49;;;;;;;4.93;2.22;;;16.00;52.30;;;;;;4975194;28;20034;-59
2021/04/24 07:53:15;;;;;;;2.25;2.00;;;16.10;52.00;;;;;;4992421;28;20053;-59
2021/04/24 07:55:41;;;;;;;3.33;1.95;;;16.00;51.90;;;;;;4992740;28;20015;-57
2021/04/24 07:58:07;;;;;;;3.20;2.60;;;15.90;51.80;;;;;;4992852;28;20549;-59
2021/04/24 08:00:33;;;;;;;2.35;2.15;;;16.20;77.80;;;;;;4992654;28;20105;-58
2021/04/24 08:02:58;;;;;;;2.53;2.03;;;16.20;52.30;;;;;;4992331;28;20046;-58
2021/04/24 08:05:24;;;;;;;3.25;2.40;;;16.20;52.40;;;;;;4992802;28;20018;-59
2021/04/24 08:07:50;;;;;;;3.65;2.55;;;16.30;52.40;;;;;;4992807;28;20069;-58
2021/04/24 08:10:15;;;;;;;4.10;2.10;;;16.00;52.50;;;;;;4992865;28;20050;-60
2021/04/24 08:12:41;;;;;;;3.80;2.63;;;16.30;52.80;;;;;;4992284;28;20022;-59
2021/04/24 08:15:08;;;;;;;2.40;2.10;;;16.20;52.90;;;;;;4992442;28;20112;-59
2021/04/24 08:17:34;;;;;;;4.32;2.25;;;16.50;53.60;;;;;;4992561;28;20025;-60
2021/04/24 08:20:01;;;;;;;2.47;2.10;;;16.40;53.10;;;;;;4992599;28;20109;-59
2021/04/24 08:22:26;;;;;;;2.10;1.90;;;16.50;53.00;;;;;;4992404;28;20014;-59
2021/04/24 08:24:52;;;;;;;2.50;1.83;;;16.70;52.70;;;;;;4992474;28;20124;-60
2021/04/24 08:27:19;;;;;;;5.07;1.75;;;16.60;52.50;;;;;;4992493;28;20432;-61
2021/04/24 08:29:45;;;;;;;4.60;2.08;;;16.70;52.30;;;;;;4975214;28;20111;-59
2021/04/24 08:32:10;;;;;;;5.25;2.08;;;16.70;52.10;;;;;;4992381;28;20031;-58
2021/04/24 08:34:36;;;;;;;3.50;1.90;;;17.20;52.40;;;;;;4992085;28;20496;-59
2021/04/24 08:37:02;;;;;;;4.85;1.98;;;16.90;51.90;;;;;;4992335;28;20018;-56
2021/04/24 08:39:28;;;;;;;2.22;1.67;;;17.10;52.20;;;;;;4974986;28;20493;-58
2021/04/24 08:41:54;;;;;;;5.97;2.10;;;17.10;52.50;;;;;;4974578;28;20114;-56
2021/04/24 08:44:20;;;;;;;2.70;1.90;;;17.10;53.10;;;;;;4994022;28;20035;-59
2021/04/24 08:46:51;;;;;;;6.35;2.05;;;17.50;52.60;;;;;;4996313;28;20392;-57
2021/04/24 08:49:21;;;;;;;5.60;1.90;;;17.40;52.50;;;;;;4996402;28;20030;-56
2021/04/24 08:51:49;;;;;;;2.45;1.70;;;17.40;52.90;;;;;;4996110;28;20022;-59
2021/04/24 08:54:15;;;;;;;8.90;2.38;;;17.50;53.00;;;;;;4996307;28;20019;-58
2021/04/24 08:56:42;;;;;;;5.97;1.63;;;17.80;52.50;;;;;;4996057;28;20078;-58
2021/04/24 08:59:08;;;;;;;2.95;1.65;;;17.60;52.90;;;;;;4996064;28;20030;-58
2021/04/24 09:01:34;;;;;;;7.05;1.52;;;17.70;52.50;;;;;;4977714;28;20381;-57
2021/04/24 09:04:01;;;;;;;3.35;1.42;;;17.90;52.30;;;;;;4995776;28;20120;-56
2021/04/24 09:06:28;;;;;;;6.47;1.30;;;17.90;51.60;;;;;;4995437;28;20026;-57
2021/04/24 09:08:59;;;;;;;4.22;1.65;;;18.00;52.20;;;;;;4995647;28;20025;-58
2021/04/24 09:11:26;;;;;;;7.00;1.45;;;18.00;52.20;;;;;;4995368;28;20023;-59
2021/04/24 09:14:01;;;;;;;3.83;1.50;;;18.10;51.70;;;;;;4978178;28;20022;-57
2021/04/24 09:16:28;;;;;;;3.40;1.13;;;18.00;51.70;;;;;;4995736;28;20050;-59
2021/04/24 09:18:55;;;;;;;1.67;1.13;;;18.60;52.40;;;;;;4995680;28;20030;-56
2021/04/24 09:21:26;;;;;;;4.15;1.50;;;18.00;52.00;;;;;;4995351;28;20113;-58
2021/04/24 09:23:51;;;;;;;4.00;1.48;;;18.40;77.00;;;;;;4995465;28;20091;-57
2021/04/24 09:26:24;;;;;;;17.05;1.40;;;18.10;51.60;;;;;;4995771;28;20113;-57
2021/04/24 09:29:03;;;;;;;5.07;1.33;;;18.40;51.70;;;;;;4978026;28;20049;-57
2021/04/24 09:31:31;;;;;;;1.97;1.10;;;18.40;51.60;;;;;;4994867;28;20045;-56
2021/04/24 09:33:59;;;;;;;1.77;1.38;;;18.60;51.30;;;;;;4995597;28;20030;-57
2021/04/24 09:36:34;;;;;;;4.32;1.23;;;18.30;50.90;;;;;;4977786;28;20050;-58
2021/04/24 09:39:03;;;;;;;2.97;1.20;;;18.40;51.60;;;;;;4995419;28;20026;-58
2021/04/24 09:41:33;;;;;;;2.17;1.15;;;18.50;51.70;;;;;;4995097;28;20031;-56
2021/04/24 09:44:09;;;;;;;1.42;1.00;;;19.40;51.10;;;;;;4995477;28;20034;-56
2021/04/24 09:46:48;;;;;;;1.50;1.02;;;18.70;50.60;;;;;;4995376;28;20113;-57
2021/04/24 09:49:29;;;;;;;2.47;0.90;;;18.70;50.90;;;;;;4995261;28;20053;-57
2021/04/24 09:51:54;;;;;;;;;;;18.80;50.20;;;;;;4995419;28;20018;-57
2021/04/24 09:54:22;;;;;;;2.38;1.20;;;18.80;50.90;;;;;;4995022;28;19910;-58
2021/04/24 09:57:02;;;;;;;3.85;1.27;;;19.60;51.10;;;;;;4993939;28;20213;-57
2021/04/24 09:59:29;;;;;;;4.20;1.17;;;19.00;51.70;;;;;;4994875;28;20103;-57
2021/04/24 10:01:59;;;;;;;3.80;1.15;;;18.90;51.70;;;;;;4994537;28;20038;-57
2021/04/24 10:04:25;;;;;;;1.95;1.02;;;19.80;52.10;;;;;;4994956;28;20038;-57
2021/04/24 10:06:53;;;;;;;3.25;1.48;;;19.00;52.30;;;;;;4994689;28;20037;-56
2021/04/24 10:09:30;;;;;;;2.08;1.00;;;19.20;53.20;;;;;;4994975;28;20030;-58
2021/04/24 10:12:09;;;;;;;2.47;1.10;;;19.20;54.40;;;;;;4994414;28;20033;-58
2021/04/24 10:14:39;;;;;;;1.77;1.15;;;19.20;52.00;;;;;;4994654;28;20050;-58
2021/04/24 10:17:10;;;;;;;3.33;1.10;;;19.20;53.50;;;;;;4994721;28;20077;-58
2021/04/24 10:19:36;;;;;;;3.22;1.38;;;19.50;60.00;;;;;;4994474;28;20030;-57
2021/04/24 10:22:05;;;;;;;3.75;1.48;;;19.30;72.30;;;;;;4976696;28;20118;-57
2021/04/24 10:24:31;;;;;;;3.85;1.30;;;19.00;74.80;;;;;;4994112;28;20465;-57
2021/04/24 10:26:57;;;;;;;5.65;1.58;;;19.50;71.50;;;;;;4994536;28;20057;-57
2021/04/24 10:29:24;;;;;;;3.17;1.55;;;20.20;69.80;;;;;;4976724;28;20100;-59
2021/04/24 10:31:50;;;;;;;2.53;1.42;;;19.80;68.10;;;;;;4994173;28;20018;-60
2021/04/24 10:34:17;;;;;;;8.02;2.95;;;20.10;67.20;;;;;;4994154;28;20062;-60
2021/04/24 10:36:43;;;;;;;4.57;1.88;;;19.80;65.40;;;;;;4994136;28;20026;-60
2021/04/24 10:39:20;;;;;;;5.15;2.50;;;20.00;63.10;;;;;;4993969;28;20038;-60
2021/04/24 10:42:10;;;;;;;11.27;2.13;;;19.90;50.80;;;;;;4994032;28;20033;-60
2021/04/24 10:44:50;;;;;;;4.47;2.00;;;18.90;47.40;;;;;;4994355;28;20077;-60
2021/04/24 10:47:36;;;;;;;6.22;2.03;;;18.90;46.70;;;;;;4993735;28;20030;-60
2021/04/24 10:50:02;;;;;;;8.90;2.20;;;18.90;47.80;;;;;;4993672;28;20030;-60
2021/04/24 10:52:27;;;;;;;6.25;2.03;;;18.90;47.60;;;;;;4993791;28;20026;-60
2021/04/24 10:55:12;;;;;;;4.63;1.50;;;19.60;47.80;;;;;;4993751;28;20023;-60
2021/04/24 10:57:40;;;;;;;3.42;1.23;;;19.60;47.80;;;;;;4993768;28;20482;-60
2021/04/24 11:00:11;;;;;;;2.63;1.48;;;19.00;47.10;;;;;;4993954;28;20113;-60
2021/04/24 11:02:41;;;;;;;3.75;1.60;;;18.80;46.80;;;;;;4993413;28;20520;-60
2021/04/24 11:05:16;;;;;;;2.03;1.13;;;19.00;46.60;;;;;;4993286;28;20053;-60
2021/04/24 11:07:42;;;;;;;3.10;1.50;;;18.80;46.70;;;;;;4993105;28;20027;-60
2021/04/24 11:10:10;;;;;;;2.13;1.35;;;18.90;46.50;;;;;;4993342;28;20069;-60
2021/04/24 11:12:41;;;;;;;2.40;1.67;;;19.20;46.90;;;;;;4993456;28;20066;-58
2021/04/24 11:15:08;;;;;;;3.85;1.50;;;18.80;46.30;;;;;;4993154;28;20023;-59
2021/04/24 11:17:36;;;;;;;3.17;1.60;;;18.70;46.50;;;;;;4993346;28;20036;-58
2021/04/24 11:20:03;;;;;;;2.72;1.50;;;18.80;46.60;;;;;;4993266;28;20057;-59
2021/04/24 11:22:36;;;;;;;2.53;1.23;;;18.70;46.90;;;;;;4993219;28;20037;-60
2021/04/24 11:25:17;;;;;;;3.05;1.48;;;18.50;47.10;;;;;;4992683;28;20105;-59
2021/04/24 11:28:03;;;;;;;3.03;1.38;;;19.00;47.40;;;;;;4993244;28;20057;-58
2021/04/24 11:30:48;;;;;;;4.38;1.35;;;18.70;46.90;;;;;;4993385;28;20018;-60
2021/04/24 11:33:39;;;;;;;3.28;1.40;;;19.20;47.30;;;;;;4992942;28;20481;-60
2021/04/24 11:36:14;;;;;;;3.58;1.50;;;18.60;46.50;;;;;;4993187;28;20149;-61
2021/04/24 11:41:27;;;;;;;3.15;1.85;;;18.50;45.90;;;;;;4992944;28;20030;-61
2021/04/24 11:43:53;;;;;;;3.83;2.08;;;18.30;44.30;;;;;;4992803;28;20061;-61
2021/04/24 11:46:38;;;;;;;3.13;1.60;;;18.50;44.00;;;;;;4975220;28;20478;-61
2021/04/24 11:49:03;;;;;;;2.17;1.95;;;18.20;43.00;;;;;;4992820;28;20022;-61
2021/04/24 11:51:43;;;;;;;5.10;2.60;;;18.30;41.20;;;;;;4992842;28;20065;-61
2021/04/24 11:54:12;;;;;;;3.13;2.23;;;18.30;39.50;;;;;;4975911;28;20030;-61
2021/04/24 11:56:39;;;;;;;3.47;2.47;;;18.20;39.50;;;;;;4973165;28;20046;-58
2021/04/24 11:59:05;;;;;;;3.08;2.40;;;18.20;39.80;;;;;;4955769;28;20085;-58
2021/04/24 12:01:31;;;;;;;5.70;2.30;;;18.10;40.00;;;;;;4955644;28;20026;-58
2021/04/24 12:03:57;;;;;;;3.65;2.25;;;18.20;40.60;;;;;;4955608;28;20045;-58
2021/04/24 12:06:41;;;;;;;2.80;1.75;;;18.00;41.10;;;;;;4973102;28;20023;-57
2021/04/24 12:09:14;;;;;;;5.90;2.35;;;18.20;41.60;;;;;;4955047;28;20117;-58
2021/04/24 12:11:41;;;;;;;4.20;2.10;;;17.90;42.10;;;;;;4973322;28;20043;-57
2021/04/24 12:14:07;;;;;;;3.45;1.70;;;18.50;42.60;;;;;;4971601;28;20038;-56
2021/04/24 12:16:44;;;;;;;2.33;1.65;;;18.10;43.10;;;;;;4973146;28;20676;-56
2021/04/24 12:19:33;;;;;;;2.58;1.40;;;18.10;43.30;;;;;;4972611;28;20023;-56
2021/04/24 12:22:09;;;;;;;2.30;1.88;;;18.10;43.70;;;;;;4972734;28;20094;-56
2021/04/24 12:24:49;;;;;;;2.75;1.83;;;18.10;44.30;;;;;;4972496;28;20085;-57
2021/04/24 12:27:33;;;;;;;4.93;1.90;;;17.80;44.70;;;;;;4973113;28;20495;-57
2021/04/24 12:30:02;;;;;;;2.60;2.22;;;18.10;45.10;;;;;;4973389;28;20043;-58
2021/04/24 12:32:37;;;;;;;3.25;2.00;;;18.10;46.80;;;;;;4972960;28;20023;-59
2021/04/24 12:35:06;;;;;;;3.65;2.20;;;18.10;46.60;;;;;;4955493;28;20034;-58
2021/04/24 12:37:32;;;;;;;5.75;2.47;;;18.10;46.50;;;;;;4972853;28;20031;-59
2021/04/24 12:40:04;;;;;;;5.18;2.08;;;17.80;47.50;;;;;;4973181;28;20429;-59
2021/04/24 12:42:30;;;;;;;7.40;2.42;;;17.90;47.80;;;;;;4972694;28;20018;-58
2021/04/24 12:44:55;;;;;;;5.35;2.00;;;18.20;48.10;;;;;;4972568;28;20031;-58
2021/04/24 12:47:21;;;;;;;4.03;2.10;;;18.10;48.10;;;;;;4972896;28;20026;-59
2021/04/24 12:49:47;;;;;;;3.05;1.88;;;18.30;48.50;;;;;;4973151;28;20033;-60
2021/04/24 12:52:12;;;;;;;4.97;2.45;;;18.10;48.60;;;;;;4972943;28;20027;-60
2021/04/24 12:54:38;;;;;;;4.10;2.38;;;17.90;47.30;;;;;;4972785;28;20042;-61